sensor_id;sensor_type;location;lat;lon;timestamp;P1;durP1;ratioP1;P2;durP2;ratioP2
1174;SDS011;576;48.418;10.074;2022-10-29T00:00:55;4.80;;;4.40;;
1174;SDS011;576;48.418;10.074;2022-10-29T00:03:24;3.93;;;3.70;;
1174;SDS011;576;48.418;10.074;2022-10-29T00:05:56;5.47;;;4.50;;
1174;SDS011;576;48.418;10.074;2022-10-29T00:08:25;5.10;;;4.60;;
1174;SDS011;576;48.418;10.074;2022-10-29T00:10:55;10.00;;;4.80;;
1174;SDS011;576;48.418;10.074;2022-10-29T00:13:32;4.77;;;4.33;;
1174;SDS011;576;48.418;10.074;2022-10-29T00:16:03;4.83;;;4.33;;
1174;SDS011;576;48.418;10.074;2022-10-29T00:18:32;5.13;;;4.20;;
1174;SDS011;576;48.418;10.074;2022-10-29T00:21:00;6.07;;;4.37;;
1174;SDS011;576;48.418;10.074;2022-10-29T00:23:29;4.70;;;4.13;;
1174;SDS011;576;48.418;10.074;2022-10-29T00:25:57;4.93;;;4.37;;
1174;SDS011;576;48.418;10.074;2022-10-29T00:28:27;4.80;;;4.30;;
1174;SDS011;576;48.418;10.074;2022-10-29T00:31:00;5.70;;;4.30;;
1174;SDS011;576;48.418;10.074;2022-10-29T00:33:29;5.30;;;4.80;;
1174;SDS011;576;48.418;10.074;2022-10-29T00:35:58;6.00;;;5.00;;
1174;SDS011;576;48.418;10.074;2022-10-29T00:38:29;4.20;;;3.77;;
1174;SDS011;576;48.418;10.074;2022-10-29T00:40:57;6.33;;;3.90;;
1174;SDS011;576;48.418;10.074;2022-10-29T00:43:26;4.70;;;4.30;;
1174;SDS011;576;48.418;10.074;2022-10-29T00:45:56;7.43;;;4.57;;
1174;SDS011;576;48.418;10.074;2022-10-29T00:48:28;6.17;;;4.67;;
1174;SDS011;576;48.418;10.074;2022-10-29T00:50:59;4.97;;;4.57;;
1174;SDS011;576;48.418;10.074;2022-10-29T00:53:29;6.40;;;5.10;;
1174;SDS011;576;48.418;10.074;2022-10-29T00:56:04;5.07;;;4.67;;
1174;SDS011;576;48.418;10.074;2022-10-29T00:58:33;6.33;;;5.10;;
1174;SDS011;576;48.418;10.074;2022-10-29T01:01:03;5.30;;;4.57;;
1174;SDS011;576;48.418;10.074;2022-10-29T01:03:32;10.03;;;5.73;;
1174;SDS011;576;48.418;10.074;2022-10-29T01:06:00;5.40;;;4.63;;
1174;SDS011;576;48.418;10.074;2022-10-29T01:08:29;6.80;;;5.43;;
1174;SDS011;576;48.418;10.074;2022-10-29T01:10:59;5.07;;;3.73;;
1174;SDS011;576;48.418;10.074;2022-10-29T01:13:41;4.20;;;3.83;;
1174;SDS011;576;48.418;10.074;2022-10-29T01:16:22;4.77;;;4.17;;
1174;SDS011;576;48.418;10.074;2022-10-29T01:18:58;5.30;;;4.80;;
1174;SDS011;576;48.418;10.074;2022-10-29T01:21:39;5.93;;;5.10;;
1174;SDS011;576;48.418;10.074;2022-10-29T01:24:35;6.40;;;4.47;;
1174;SDS011;576;48.418;10.074;2022-10-29T01:30:29;7.00;;;5.00;;
1174;SDS011;576;48.418;10.074;2022-10-29T01:33:18;5.40;;;4.70;;
1174;SDS011;576;48.418;10.074;2022-10-29T01:35:50;7.07;;;6.30;;
1174;SDS011;576;48.418;10.074;2022-10-29T01:38:27;4.13;;;3.83;;
1174;SDS011;576;48.418;10.074;2022-10-29T01:41:02;6.03;;;5.53;;
1174;SDS011;576;48.418;10.074;2022-10-29T01:43:36;5.53;;;5.13;;
1174;SDS011;576;48.418;10.074;2022-10-29T01:46:08;6.63;;;5.67;;
1174;SDS011;576;48.418;10.074;2022-10-29T01:48:45;7.00;;;5.60;;
1174;SDS011;576;48.418;10.074;2022-10-29T01:51:17;7.60;;;5.47;;
1174;SDS011;576;48.418;10.074;2022-10-29T01:53:48;4.73;;;4.33;;
1174;SDS011;576;48.418;10.074;2022-10-29T01:56:17;4.83;;;4.43;;
1174;SDS011;576;48.418;10.074;2022-10-29T01:58:47;6.40;;;5.80;;
1174;SDS011;576;48.418;10.074;2022-10-29T02:01:23;4.70;;;4.30;;
1174;SDS011;576;48.418;10.074;2022-10-29T02:04:06;5.70;;;4.30;;
1174;SDS011;576;48.418;10.074;2022-10-29T02:06:58;5.63;;;5.03;;
1174;SDS011;576;48.418;10.074;2022-10-29T02:09:33;5.13;;;4.73;;
1174;SDS011;576;48.418;10.074;2022-10-29T02:12:08;7.93;;;5.10;;
1174;SDS011;576;48.418;10.074;2022-10-29T02:14:45;5.77;;;5.27;;
1174;SDS011;576;48.418;10.074;2022-10-29T02:17:16;8.20;;;5.40;;
1174;SDS011;576;48.418;10.074;2022-10-29T02:19:46;7.23;;;5.10;;
1174;SDS011;576;48.418;10.074;2022-10-29T02:22:14;5.70;;;5.00;;
1174;SDS011;576;48.418;10.074;2022-10-29T02:24:42;4.33;;;3.93;;
1174;SDS011;576;48.418;10.074;2022-10-29T02:27:10;5.43;;;4.50;;
1174;SDS011;576;48.418;10.074;2022-10-29T02:29:39;5.07;;;4.53;;
1174;SDS011;576;48.418;10.074;2022-10-29T02:32:07;4.10;;;3.70;;
1174;SDS011;576;48.418;10.074;2022-10-29T02:34:35;5.80;;;4.87;;
1174;SDS011;576;48.418;10.074;2022-10-29T02:37:04;6.07;;;5.00;;
1174;SDS011;576;48.418;10.074;2022-10-29T02:39:32;4.07;;;3.67;;
1174;SDS011;576;48.418;10.074;2022-10-29T02:42:01;5.07;;;4.57;;
1174;SDS011;576;48.418;10.074;2022-10-29T02:44:29;5.60;;;5.03;;
1174;SDS011;576;48.418;10.074;2022-10-29T02:46:57;9.63;;;5.23;;
1174;SDS011;576;48.418;10.074;2022-10-29T02:49:25;6.87;;;4.60;;
1174;SDS011;576;48.418;10.074;2022-10-29T02:51:53;5.97;;;5.10;;
1174;SDS011;576;48.418;10.074;2022-10-29T02:54:23;8.80;;;5.33;;
1174;SDS011;576;48.418;10.074;2022-10-29T02:56:51;4.50;;;4.17;;
1174;SDS011;576;48.418;10.074;2022-10-29T02:59:19;5.40;;;4.30;;
1174;SDS011;576;48.418;10.074;2022-10-29T03:01:47;5.83;;;5.33;;
1174;SDS011;576;48.418;10.074;2022-10-29T03:04:16;5.10;;;4.70;;
1174;SDS011;576;48.418;10.074;2022-10-29T03:06:44;6.63;;;5.43;;
1174;SDS011;576;48.418;10.074;2022-10-29T03:09:12;5.17;;;4.33;;
1174;SDS011;576;48.418;10.074;2022-10-29T03:11:41;4.90;;;4.50;;
1174;SDS011;576;48.418;10.074;2022-10-29T03:14:09;4.97;;;4.47;;
1174;SDS011;576;48.418;10.074;2022-10-29T03:16:38;4.70;;;3.83;;
1174;SDS011;576;48.418;10.074;2022-10-29T03:19:06;7.60;;;5.70;;
1174;SDS011;576;48.418;10.074;2022-10-29T03:21:34;6.77;;;4.90;;
1174;SDS011;576;48.418;10.074;2022-10-29T03:24:03;6.40;;;4.53;;
1174;SDS011;576;48.418;10.074;2022-10-29T03:26:32;5.50;;;4.80;;
1174;SDS011;576;48.418;10.074;2022-10-29T03:29:01;5.50;;;4.40;;
1174;SDS011;576;48.418;10.074;2022-10-29T03:31:32;5.63;;;4.47;;
1174;SDS011;576;48.418;10.074;2022-10-29T03:34:00;6.03;;;4.70;;
1174;SDS011;576;48.418;10.074;2022-10-29T03:36:28;5.10;;;4.60;;
1174;SDS011;576;48.418;10.074;2022-10-29T03:38:56;5.40;;;4.30;;
1174;SDS011;576;48.418;10.074;2022-10-29T03:41:24;8.10;;;5.80;;
1174;SDS011;576;48.418;10.074;2022-10-29T03:43:53;4.80;;;4.40;;
1174;SDS011;576;48.418;10.074;2022-10-29T03:46:27;4.33;;;4.03;;
1174;SDS011;576;48.418;10.074;2022-10-29T03:48:55;4.80;;;4.37;;
1174;SDS011;576;48.418;10.074;2022-10-29T03:51:23;5.03;;;4.73;;
1174;SDS011;576;48.418;10.074;2022-10-29T03:53:52;8.70;;;4.30;;
1174;SDS011;576;48.418;10.074;2022-10-29T03:56:20;5.50;;;5.10;;
1174;SDS011;576;48.418;10.074;2022-10-29T03:58:48;4.57;;;4.10;;
1174;SDS011;576;48.418;10.074;2022-10-29T04:01:16;5.50;;;4.10;;
1174;SDS011;576;48.418;10.074;2022-10-29T04:03:46;6.00;;;4.07;;
1174;SDS011;576;48.418;10.074;2022-10-29T04:06:14;5.30;;;4.03;;
1174;SDS011;576;48.418;10.074;2022-10-29T04:08:43;5.37;;;4.63;;
1174;SDS011;576;48.418;10.074;2022-10-29T04:11:12;5.00;;;4.50;;
1174;SDS011;576;48.418;10.074;2022-10-29T04:13:41;6.13;;;5.60;;
1174;SDS011;576;48.418;10.074;2022-10-29T04:16:09;6.73;;;4.73;;
1174;SDS011;576;48.418;10.074;2022-10-29T04:18:37;5.17;;;4.20;;
1174;SDS011;576;48.418;10.074;2022-10-29T04:21:07;4.93;;;4.53;;
1174;SDS011;576;48.418;10.074;2022-10-29T04:23:55;4.97;;;4.37;;
1174;SDS011;576;48.418;10.074;2022-10-29T04:26:44;4.90;;;4.13;;
1174;SDS011;576;48.418;10.074;2022-10-29T04:29:32;5.50;;;5.00;;
1174;SDS011;576;48.418;10.074;2022-10-29T04:32:00;5.10;;;4.60;;
1174;SDS011;576;48.418;10.074;2022-10-29T04:34:28;4.77;;;4.13;;
1174;SDS011;576;48.418;10.074;2022-10-29T04:36:57;6.17;;;4.80;;
1174;SDS011;576;48.418;10.074;2022-10-29T04:39:26;6.00;;;5.13;;
1174;SDS011;576;48.418;10.074;2022-10-29T04:41:54;5.07;;;4.67;;
1174;SDS011;576;48.418;10.074;2022-10-29T04:44:22;4.57;;;4.17;;
1174;SDS011;576;48.418;10.074;2022-10-29T04:46:50;6.60;;;4.63;;
1174;SDS011;576;48.418;10.074;2022-10-29T04:49:18;4.60;;;4.20;;
1174;SDS011;576;48.418;10.074;2022-10-29T04:51:46;4.40;;;4.00;;
1174;SDS011;576;48.418;10.074;2022-10-29T04:54:16;6.43;;;4.33;;
1174;SDS011;576;48.418;10.074;2022-10-29T04:56:44;6.23;;;4.63;;
1174;SDS011;576;48.418;10.074;2022-10-29T04:59:12;6.20;;;5.37;;
1174;SDS011;576;48.418;10.074;2022-10-29T05:01:40;6.67;;;6.00;;
1174;SDS011;576;48.418;10.074;2022-10-29T05:04:08;5.13;;;4.03;;
1174;SDS011;576;48.418;10.074;2022-10-29T05:06:37;5.40;;;4.90;;
1174;SDS011;576;48.418;10.074;2022-10-29T05:09:05;5.77;;;4.23;;
1174;SDS011;576;48.418;10.074;2022-10-29T05:11:34;4.60;;;4.10;;
1174;SDS011;576;48.418;10.074;2022-10-29T05:14:02;5.50;;;4.87;;
1174;SDS011;576;48.418;10.074;2022-10-29T05:16:31;6.97;;;5.10;;
1174;SDS011;576;48.418;10.074;2022-10-29T05:18:59;5.73;;;4.83;;
1174;SDS011;576;48.418;10.074;2022-10-29T05:21:28;4.50;;;4.10;;
1174;SDS011;576;48.418;10.074;2022-10-29T05:23:56;4.90;;;4.40;;
1174;SDS011;576;48.418;10.074;2022-10-29T05:26:24;5.07;;;4.57;;
1174;SDS011;576;48.418;10.074;2022-10-29T05:28:54;4.90;;;4.47;;
1174;SDS011;576;48.418;10.074;2022-10-29T05:31:22;4.00;;;3.70;;
1174;SDS011;576;48.418;10.074;2022-10-29T05:33:50;5.50;;;4.67;;
1174;SDS011;576;48.418;10.074;2022-10-29T05:36:21;8.47;;;4.50;;
1174;SDS011;576;48.418;10.074;2022-10-29T05:38:49;5.40;;;5.00;;
1174;SDS011;576;48.418;10.074;2022-10-29T05:41:17;5.20;;;4.70;;
1174;SDS011;576;48.418;10.074;2022-10-29T05:43:47;4.53;;;4.23;;
1174;SDS011;576;48.418;10.074;2022-10-29T05:46:16;4.43;;;4.07;;
1174;SDS011;576;48.418;10.074;2022-10-29T05:48:45;4.17;;;3.80;;
1174;SDS011;576;48.418;10.074;2022-10-29T05:51:13;4.67;;;4.37;;
1174;SDS011;576;48.418;10.074;2022-10-29T05:53:41;5.83;;;4.77;;
1174;SDS011;576;48.418;10.074;2022-10-29T05:56:09;4.57;;;4.27;;
1174;SDS011;576;48.418;10.074;2022-10-29T05:58:37;4.97;;;4.50;;
1174;SDS011;576;48.418;10.074;2022-10-29T06:01:06;4.70;;;4.23;;
1174;SDS011;576;48.418;10.074;2022-10-29T06:03:36;4.40;;;4.10;;
1174;SDS011;576;48.418;10.074;2022-10-29T06:06:05;4.50;;;4.20;;
1174;SDS011;576;48.418;10.074;2022-10-29T06:08:33;6.70;;;4.37;;
1174;SDS011;576;48.418;10.074;2022-10-29T06:11:02;7.00;;;4.97;;
1174;SDS011;576;48.418;10.074;2022-10-29T06:13:30;4.07;;;3.77;;
1174;SDS011;576;48.418;10.074;2022-10-29T06:15:59;5.40;;;4.27;;
1174;SDS011;576;48.418;10.074;2022-10-29T06:18:27;5.33;;;4.67;;
1174;SDS011;576;48.418;10.074;2022-10-29T06:20:58;4.53;;;4.23;;
1174;SDS011;576;48.418;10.074;2022-10-29T06:23:26;4.70;;;4.17;;
1174;SDS011;576;48.418;10.074;2022-10-29T06:25:57;5.13;;;4.17;;
1174;SDS011;576;48.418;10.074;2022-10-29T06:28:26;4.33;;;4.03;;
1174;SDS011;576;48.418;10.074;2022-10-29T06:31:00;4.73;;;4.27;;
1174;SDS011;576;48.418;10.074;2022-10-29T06:33:28;4.63;;;4.20;;
1174;SDS011;576;48.418;10.074;2022-10-29T06:35:58;5.87;;;4.60;;
1174;SDS011;576;48.418;10.074;2022-10-29T06:38:27;6.07;;;4.87;;
1174;SDS011;576;48.418;10.074;2022-10-29T06:40:55;4.97;;;4.57;;
1174;SDS011;576;48.418;10.074;2022-10-29T06:43:23;7.27;;;5.40;;
1174;SDS011;576;48.418;10.074;2022-10-29T06:45:52;4.67;;;4.17;;
1174;SDS011;576;48.418;10.074;2022-10-29T06:48:20;5.07;;;4.67;;
1174;SDS011;576;48.418;10.074;2022-10-29T06:50:48;5.43;;;4.87;;
1174;SDS011;576;48.418;10.074;2022-10-29T06:53:18;5.87;;;4.53;;
1174;SDS011;576;48.418;10.074;2022-10-29T06:55:46;4.97;;;4.50;;
1174;SDS011;576;48.418;10.074;2022-10-29T06:58:15;4.33;;;3.93;;
1174;SDS011;576;48.418;10.074;2022-10-29T07:00:45;4.07;;;3.77;;
1174;SDS011;576;48.418;10.074;2022-10-29T07:03:14;3.97;;;3.67;;
1174;SDS011;576;48.418;10.074;2022-10-29T07:05:43;4.10;;;3.70;;
1174;SDS011;576;48.418;10.074;2022-10-29T07:08:12;6.07;;;3.43;;
1174;SDS011;576;48.418;10.074;2022-10-29T07:10:41;5.90;;;4.40;;
1174;SDS011;576;48.418;10.074;2022-10-29T07:13:10;8.47;;;4.83;;
1174;SDS011;576;48.418;10.074;2022-10-29T07:15:38;6.47;;;5.70;;
1174;SDS011;576;48.418;10.074;2022-10-29T07:18:06;4.80;;;4.30;;
1174;SDS011;576;48.418;10.074;2022-10-29T07:20:36;5.50;;;4.90;;
1174;SDS011;576;48.418;10.074;2022-10-29T07:23:06;8.23;;;4.57;;
1174;SDS011;576;48.418;10.074;2022-10-29T07:25:34;5.83;;;3.90;;
1174;SDS011;576;48.418;10.074;2022-10-29T07:28:06;9.27;;;5.63;;
1174;SDS011;576;48.418;10.074;2022-10-29T07:30:35;5.87;;;4.40;;
1174;SDS011;576;48.418;10.074;2022-10-29T07:33:03;5.33;;;4.80;;
1174;SDS011;576;48.418;10.074;2022-10-29T07:35:31;7.30;;;4.73;;
1174;SDS011;576;48.418;10.074;2022-10-29T07:38:00;7.90;;;4.20;;
1174;SDS011;576;48.418;10.074;2022-10-29T07:40:36;5.13;;;4.10;;
1174;SDS011;576;48.418;10.074;2022-10-29T07:43:07;6.53;;;4.50;;
1174;SDS011;576;48.418;10.074;2022-10-29T07:45:35;13.43;;;4.07;;
1174;SDS011;576;48.418;10.074;2022-10-29T07:48:04;5.53;;;4.93;;
1174;SDS011;576;48.418;10.074;2022-10-29T07:50:34;9.53;;;5.40;;
1174;SDS011;576;48.418;10.074;2022-10-29T07:53:03;7.77;;;4.57;;
1174;SDS011;576;48.418;10.074;2022-10-29T07:55:31;4.47;;;4.07;;
1174;SDS011;576;48.418;10.074;2022-10-29T07:58:00;11.87;;;4.73;;
1174;SDS011;576;48.418;10.074;2022-10-29T08:00:33;4.67;;;4.27;;
1174;SDS011;576;48.418;10.074;2022-10-29T08:03:03;6.03;;;4.47;;
1174;SDS011;576;48.418;10.074;2022-10-29T08:05:35;8.23;;;4.43;;
1174;SDS011;576;48.418;10.074;2022-10-29T08:08:03;8.37;;;5.10;;
1174;SDS011;576;48.418;10.074;2022-10-29T08:10:32;7.33;;;5.50;;
1174;SDS011;576;48.418;10.074;2022-10-29T08:13:02;10.60;;;6.70;;
1174;SDS011;576;48.418;10.074;2022-10-29T08:15:33;6.97;;;5.60;;
1174;SDS011;576;48.418;10.074;2022-10-29T08:18:01;8.60;;;5.87;;
1174;SDS011;576;48.418;10.074;2022-10-29T08:20:35;11.50;;;6.20;;
1174;SDS011;576;48.418;10.074;2022-10-29T08:23:03;10.33;;;5.80;;
1174;SDS011;576;48.418;10.074;2022-10-29T08:25:31;8.60;;;6.30;;
1174;SDS011;576;48.418;10.074;2022-10-29T08:28:00;10.23;;;6.07;;
1174;SDS011;576;48.418;10.074;2022-10-29T08:30:30;12.40;;;6.40;;
1174;SDS011;576;48.418;10.074;2022-10-29T08:33:00;10.37;;;5.70;;
1174;SDS011;576;48.418;10.074;2022-10-29T08:35:28;10.93;;;6.03;;
1174;SDS011;576;48.418;10.074;2022-10-29T08:37:57;6.00;;;5.40;;
1174;SDS011;576;48.418;10.074;2022-10-29T08:40:29;9.07;;;4.50;;
1174;SDS011;576;48.418;10.074;2022-10-29T08:43:14;6.53;;;4.47;;
1174;SDS011;576;48.418;10.074;2022-10-29T08:46:02;6.03;;;4.37;;
1174;SDS011;576;48.418;10.074;2022-10-29T08:48:37;9.33;;;5.20;;
1174;SDS011;576;48.418;10.074;2022-10-29T08:51:13;6.23;;;5.57;;
1174;SDS011;576;48.418;10.074;2022-10-29T08:53:45;13.83;;;5.90;;
1174;SDS011;576;48.418;10.074;2022-10-29T08:56:36;6.07;;;5.47;;
1174;SDS011;576;48.418;10.074;2022-10-29T08:59:07;6.33;;;5.73;;
1174;SDS011;576;48.418;10.074;2022-10-29T09:01:39;8.67;;;5.60;;
1174;SDS011;576;48.418;10.074;2022-10-29T09:04:21;6.50;;;5.90;;
1174;SDS011;576;48.418;10.074;2022-10-29T09:06:57;6.90;;;6.17;;
1174;SDS011;576;48.418;10.074;2022-10-29T09:09:37;8.80;;;5.80;;
1174;SDS011;576;48.418;10.074;2022-10-29T09:12:24;7.87;;;6.60;;
1174;SDS011;576;48.418;10.074;2022-10-29T09:15:15;7.03;;;6.30;;
1174;SDS011;576;48.418;10.074;2022-10-29T09:17:58;7.67;;;6.97;;
1174;SDS011;576;48.418;10.074;2022-10-29T09:20:42;12.70;;;7.27;;
1174;SDS011;576;48.418;10.074;2022-10-29T09:23:21;9.77;;;8.00;;
1174;SDS011;576;48.418;10.074;2022-10-29T09:26:03;7.37;;;6.13;;
1174;SDS011;576;48.418;10.074;2022-10-29T09:28:37;7.77;;;6.90;;
1174;SDS011;576;48.418;10.074;2022-10-29T09:31:16;6.43;;;5.80;;
1174;SDS011;576;48.418;10.074;2022-10-29T09:33:52;12.27;;;7.63;;
1174;SDS011;576;48.418;10.074;2022-10-29T09:36:27;11.27;;;7.00;;
1174;SDS011;576;48.418;10.074;2022-10-29T09:38:57;11.80;;;7.77;;
1174;SDS011;576;48.418;10.074;2022-10-29T09:41:29;10.50;;;6.83;;
1174;SDS011;576;48.418;10.074;2022-10-29T09:44:00;9.43;;;6.10;;
1174;SDS011;576;48.418;10.074;2022-10-29T09:46:40;7.90;;;6.80;;
1174;SDS011;576;48.418;10.074;2022-10-29T09:49:19;7.43;;;6.40;;
1174;SDS011;576;48.418;10.074;2022-10-29T09:51:59;13.13;;;7.20;;
1174;SDS011;576;48.418;10.074;2022-10-29T09:54:31;13.23;;;9.23;;
1174;SDS011;576;48.418;10.074;2022-10-29T09:57:00;11.27;;;7.50;;
1174;SDS011;576;48.418;10.074;2022-10-29T09:59:30;10.83;;;6.20;;
1174;SDS011;576;48.418;10.074;2022-10-29T10:02:03;12.27;;;7.30;;
1174;SDS011;576;48.418;10.074;2022-10-29T10:04:51;7.43;;;6.10;;
1174;SDS011;576;48.418;10.074;2022-10-29T10:07:22;7.67;;;6.70;;
1174;SDS011;576;48.418;10.074;2022-10-29T10:09:51;14.33;;;7.27;;
1174;SDS011;576;48.418;10.074;2022-10-29T10:12:22;7.67;;;5.80;;
1174;SDS011;576;48.418;10.074;2022-10-29T10:15:05;10.10;;;6.33;;
1174;SDS011;576;48.418;10.074;2022-10-29T10:17:55;6.67;;;5.30;;
1174;SDS011;576;48.418;10.074;2022-10-29T10:20:33;9.23;;;5.40;;
1174;SDS011;576;48.418;10.074;2022-10-29T10:23:20;8.00;;;5.50;;
1174;SDS011;576;48.418;10.074;2022-10-29T10:25:49;10.10;;;4.40;;
1174;SDS011;576;48.418;10.074;2022-10-29T10:28:19;5.50;;;4.63;;
1174;SDS011;576;48.418;10.074;2022-10-29T10:33:35;8.83;;;5.30;;
1174;SDS011;576;48.418;10.074;2022-10-29T10:36:09;5.87;;;4.77;;
1174;SDS011;576;48.418;10.074;2022-10-29T10:38:39;8.93;;;5.00;;
1174;SDS011;576;48.418;10.074;2022-10-29T10:41:10;5.90;;;4.40;;
1174;SDS011;576;48.418;10.074;2022-10-29T10:43:41;5.53;;;4.30;;
1174;SDS011;576;48.418;10.074;2022-10-29T10:46:11;4.60;;;3.70;;
1174;SDS011;576;48.418;10.074;2022-10-29T10:48:44;7.83;;;4.77;;
1174;SDS011;576;48.418;10.074;2022-10-29T10:51:23;7.13;;;4.37;;
1174;SDS011;576;48.418;10.074;2022-10-29T10:53:54;9.70;;;4.07;;
1174;SDS011;576;48.418;10.074;2022-10-29T10:56:23;8.00;;;4.90;;
1174;SDS011;576;48.418;10.074;2022-10-29T10:58:53;7.90;;;4.10;;
1174;SDS011;576;48.418;10.074;2022-10-29T11:01:31;8.53;;;4.27;;
1174;SDS011;576;48.418;10.074;2022-10-29T11:04:08;10.20;;;3.97;;
1174;SDS011;576;48.418;10.074;2022-10-29T11:06:42;7.17;;;4.53;;
1174;SDS011;576;48.418;10.074;2022-10-29T11:09:17;5.43;;;4.60;;
1174;SDS011;576;48.418;10.074;2022-10-29T11:11:52;6.77;;;4.90;;
1174;SDS011;576;48.418;10.074;2022-10-29T11:14:26;6.93;;;4.30;;
1174;SDS011;576;48.418;10.074;2022-10-29T11:17:00;12.33;;;4.57;;
1174;SDS011;576;48.418;10.074;2022-10-29T11:19:32;8.83;;;4.30;;
1174;SDS011;576;48.418;10.074;2022-10-29T11:22:07;8.60;;;3.77;;
1174;SDS011;576;48.418;10.074;2022-10-29T11:24:44;7.03;;;4.47;;
1174;SDS011;576;48.418;10.074;2022-10-29T11:27:21;5.77;;;3.63;;
1174;SDS011;576;48.418;10.074;2022-10-29T11:29:56;6.77;;;4.63;;
1174;SDS011;576;48.418;10.074;2022-10-29T11:32:32;5.57;;;4.30;;
1174;SDS011;576;48.418;10.074;2022-10-29T11:35:10;5.00;;;3.70;;
1174;SDS011;576;48.418;10.074;2022-10-29T11:37:42;5.27;;;3.93;;
1174;SDS011;576;48.418;10.074;2022-10-29T11:40:15;6.77;;;3.80;;
1174;SDS011;576;48.418;10.074;2022-10-29T11:42:48;5.33;;;3.90;;
1174;SDS011;576;48.418;10.074;2022-10-29T11:45:17;6.07;;;3.77;;
1174;SDS011;576;48.418;10.074;2022-10-29T11:47:53;6.90;;;4.70;;
1174;SDS011;576;48.418;10.074;2022-10-29T11:50:35;5.83;;;4.47;;
1174;SDS011;576;48.418;10.074;2022-10-29T11:53:16;9.80;;;4.00;;
1174;SDS011;576;48.418;10.074;2022-10-29T11:55:54;8.10;;;3.87;;
1174;SDS011;576;48.418;10.074;2022-10-29T11:58:31;7.23;;;4.00;;
1174;SDS011;576;48.418;10.074;2022-10-29T12:01:08;6.17;;;4.20;;
1174;SDS011;576;48.418;10.074;2022-10-29T12:03:49;11.40;;;4.43;;
1174;SDS011;576;48.418;10.074;2022-10-29T12:06:38;12.43;;;4.53;;
1174;SDS011;576;48.418;10.074;2022-10-29T12:12:08;4.47;;;4.07;;
1174;SDS011;576;48.418;10.074;2022-10-29T12:14:43;7.37;;;4.07;;
1174;SDS011;576;48.418;10.074;2022-10-29T12:17:17;10.80;;;4.37;;
1174;SDS011;576;48.418;10.074;2022-10-29T12:19:50;6.33;;;4.00;;
1174;SDS011;576;48.418;10.074;2022-10-29T12:22:30;5.30;;;3.60;;
1174;SDS011;576;48.418;10.074;2022-10-29T12:25:11;7.83;;;4.00;;
1174;SDS011;576;48.418;10.074;2022-10-29T12:27:49;4.63;;;3.37;;
1174;SDS011;576;48.418;10.074;2022-10-29T12:30:26;9.50;;;4.33;;
1174;SDS011;576;48.418;10.074;2022-10-29T12:33:00;5.37;;;4.07;;
1174;SDS011;576;48.418;10.074;2022-10-29T12:35:35;9.00;;;4.67;;
1174;SDS011;576;48.418;10.074;2022-10-29T12:38:16;6.47;;;3.63;;
1174;SDS011;576;48.418;10.074;2022-10-29T12:40:58;6.37;;;3.80;;
1174;SDS011;576;48.418;10.074;2022-10-29T12:43:30;12.50;;;4.20;;
1174;SDS011;576;48.418;10.074;2022-10-29T12:46:03;5.10;;;4.00;;
1174;SDS011;576;48.418;10.074;2022-10-29T12:48:48;6.83;;;3.87;;
1174;SDS011;576;48.418;10.074;2022-10-29T12:51:23;4.83;;;3.40;;
1174;SDS011;576;48.418;10.074;2022-10-29T12:54:06;8.03;;;4.60;;
1174;SDS011;576;48.418;10.074;2022-10-29T12:56:42;4.83;;;4.20;;
1174;SDS011;576;48.418;10.074;2022-10-29T12:59:34;7.53;;;4.03;;
1174;SDS011;576;48.418;10.074;2022-10-29T13:02:23;7.97;;;3.90;;
1174;SDS011;576;48.418;10.074;2022-10-29T13:10:54;5.40;;;3.17;;
1174;SDS011;576;48.418;10.074;2022-10-29T13:13:31;7.60;;;3.30;;
1174;SDS011;576;48.418;10.074;2022-10-29T13:16:12;5.60;;;3.97;;
1174;SDS011;576;48.418;10.074;2022-10-29T13:24:27;10.37;;;6.03;;
1174;SDS011;576;48.418;10.074;2022-10-29T13:26:58;6.90;;;3.47;;
1174;SDS011;576;48.418;10.074;2022-10-29T13:29:47;5.80;;;3.77;;
1174;SDS011;576;48.418;10.074;2022-10-29T13:32:29;5.40;;;3.47;;
1174;SDS011;576;48.418;10.074;2022-10-29T13:34:59;7.30;;;4.00;;
1174;SDS011;576;48.418;10.074;2022-10-29T13:43:40;4.80;;;3.73;;
1174;SDS011;576;48.418;10.074;2022-10-29T13:49:16;6.10;;;4.00;;
1174;SDS011;576;48.418;10.074;2022-10-29T13:51:57;4.53;;;3.40;;
1174;SDS011;576;48.418;10.074;2022-10-29T13:54:29;4.73;;;3.57;;
1174;SDS011;576;48.418;10.074;2022-10-29T13:57:13;9.17;;;4.10;;
1174;SDS011;576;48.418;10.074;2022-10-29T13:59:47;4.00;;;3.53;;
1174;SDS011;576;48.418;10.074;2022-10-29T14:02:24;7.37;;;3.87;;
1174;SDS011;576;48.418;10.074;2022-10-29T14:05:00;11.70;;;3.20;;
1174;SDS011;576;48.418;10.074;2022-10-29T14:07:34;3.53;;;3.23;;
1174;SDS011;576;48.418;10.074;2022-10-29T14:10:12;5.70;;;4.00;;
1174;SDS011;576;48.418;10.074;2022-10-29T14:12:44;3.57;;;3.10;;
1174;SDS011;576;48.418;10.074;2022-10-29T14:15:16;6.63;;;3.77;;
1174;SDS011;576;48.418;10.074;2022-10-29T14:17:45;4.73;;;3.10;;
1174;SDS011;576;48.418;10.074;2022-10-29T14:20:23;5.83;;;3.33;;
1174;SDS011;576;48.418;10.074;2022-10-29T14:22:53;11.10;;;3.97;;
1174;SDS011;576;48.418;10.074;2022-10-29T14:25:32;6.17;;;3.80;;
1174;SDS011;576;48.418;10.074;2022-10-29T14:28:08;5.40;;;3.70;;
1174;SDS011;576;48.418;10.074;2022-10-29T14:30:42;8.80;;;4.30;;
1174;SDS011;576;48.418;10.074;2022-10-29T14:33:17;5.27;;;3.47;;
1174;SDS011;576;48.418;10.074;2022-10-29T14:35:49;7.03;;;3.47;;
1174;SDS011;576;48.418;10.074;2022-10-29T14:38:19;6.73;;;3.60;;
1174;SDS011;576;48.418;10.074;2022-10-29T14:40:52;7.10;;;3.47;;
1174;SDS011;576;48.418;10.074;2022-10-29T14:43:21;4.80;;;2.77;;
1174;SDS011;576;48.418;10.074;2022-10-29T14:45:53;6.70;;;4.40;;
1174;SDS011;576;48.418;10.074;2022-10-29T14:48:22;5.83;;;3.50;;
1174;SDS011;576;48.418;10.074;2022-10-29T14:50:51;6.33;;;3.37;;
1174;SDS011;576;48.418;10.074;2022-10-29T14:53:26;4.90;;;4.00;;
1174;SDS011;576;48.418;10.074;2022-10-29T14:55:57;5.33;;;3.23;;
1174;SDS011;576;48.418;10.074;2022-10-29T14:58:29;6.30;;;4.60;;
1174;SDS011;576;48.418;10.074;2022-10-29T15:01:02;4.13;;;3.00;;
1174;SDS011;576;48.418;10.074;2022-10-29T15:03:35;6.73;;;3.10;;
1174;SDS011;576;48.418;10.074;2022-10-29T15:06:11;4.23;;;3.40;;
1174;SDS011;576;48.418;10.074;2022-10-29T15:08:42;4.20;;;3.00;;
1174;SDS011;576;48.418;10.074;2022-10-29T15:11:30;3.90;;;3.17;;
1174;SDS011;576;48.418;10.074;2022-10-29T15:14:03;5.00;;;3.80;;
1174;SDS011;576;48.418;10.074;2022-10-29T15:16:51;8.80;;;3.30;;
1174;SDS011;576;48.418;10.074;2022-10-29T15:19:19;3.97;;;3.33;;
1174;SDS011;576;48.418;10.074;2022-10-29T15:21:48;10.00;;;4.60;;
1174;SDS011;576;48.418;10.074;2022-10-29T15:24:17;3.33;;;2.97;;
1174;SDS011;576;48.418;10.074;2022-10-29T15:26:50;5.97;;;3.27;;
1174;SDS011;576;48.418;10.074;2022-10-29T15:29:21;9.03;;;4.33;;
1174;SDS011;576;48.418;10.074;2022-10-29T15:32:01;10.10;;;4.53;;
1174;SDS011;576;48.418;10.074;2022-10-29T15:34:30;5.50;;;3.30;;
1174;SDS011;576;48.418;10.074;2022-10-29T15:37:12;7.70;;;4.00;;
1174;SDS011;576;48.418;10.074;2022-10-29T15:39:57;6.73;;;3.20;;
1174;SDS011;576;48.418;10.074;2022-10-29T15:42:31;7.53;;;3.83;;
1174;SDS011;576;48.418;10.074;2022-10-29T15:45:12;6.63;;;3.43;;
1174;SDS011;576;48.418;10.074;2022-10-29T15:47:47;7.03;;;3.80;;
1174;SDS011;576;48.418;10.074;2022-10-29T15:50:18;7.03;;;4.30;;
1174;SDS011;576;48.418;10.074;2022-10-29T15:52:52;4.63;;;3.30;;
1174;SDS011;576;48.418;10.074;2022-10-29T15:55:24;7.93;;;4.30;;
1174;SDS011;576;48.418;10.074;2022-10-29T15:57:56;9.37;;;4.77;;
1174;SDS011;576;48.418;10.074;2022-10-29T16:00:28;8.33;;;4.40;;
1174;SDS011;576;48.418;10.074;2022-10-29T16:03:00;13.47;;;5.00;;
1174;SDS011;576;48.418;10.074;2022-10-29T16:05:35;9.17;;;4.37;;
1174;SDS011;576;48.418;10.074;2022-10-29T16:08:03;5.87;;;3.43;;
1174;SDS011;576;48.418;10.074;2022-10-29T16:10:32;8.40;;;3.90;;
1174;SDS011;576;48.418;10.074;2022-10-29T16:13:01;6.50;;;4.60;;
1174;SDS011;576;48.418;10.074;2022-10-29T16:15:29;8.47;;;4.40;;
1174;SDS011;576;48.418;10.074;2022-10-29T16:17:58;9.63;;;4.50;;